createdAt,value
2023-04-25T00:02:27.324Z,100730.88
2023-04-25T00:04:54.680Z,100728.56
2023-04-25T00:07:21.929Z,100733.31
2023-04-25T00:09:48.842Z,100732.84
2023-04-25T00:12:16.870Z,100727.00
2023-04-25T00:14:43.848Z,100728.34
2023-04-25T00:17:10.795Z,100720.78
2023-04-25T00:19:39.313Z,100720.41
2023-04-25T00:22:06.973Z,100717.13
2023-04-25T00:24:34.097Z,100721.97
2023-04-25T00:27:00.977Z,100716.16
2023-04-25T00:29:27.867Z,100710.19
2023-04-25T00:31:54.794Z,100716.66
2023-04-25T00:34:21.831Z,100718.81
2023-04-25T00:36:48.746Z,100719.03
2023-04-25T00:39:16.892Z,100717.59
2023-04-25T00:41:44.595Z,100722.22
2023-04-25T00:44:13.284Z,100718.91
2023-04-25T00:46:41.094Z,100712.94
2023-04-25T00:49:08.094Z,100721.34
2023-04-25T00:51:35.672Z,100726.19
2023-04-25T00:54:03.179Z,100722.88
2023-04-25T00:56:30.756Z,100726.75
2023-04-25T00:58:58.002Z,100728.72
2023-04-25T01:01:25.164Z,100737.94
2023-04-25T01:03:55.800Z,100731.97
2023-04-25T01:06:23.798Z,100737.66
2023-04-25T01:08:50.762Z,100742.50
2023-04-25T01:11:17.803Z,100737.38
2023-04-25T01:13:45.061Z,100744.66
2023-04-25T01:16:12.076Z,100752.16
2023-04-25T01:18:41.673Z,100750.69
2023-04-25T01:21:14.451Z,100750.91
2023-04-25T01:23:43.051Z,100754.78
2023-04-25T01:26:12.360Z,100755.03
2023-04-25T01:28:42.532Z,100743.81
2023-04-25T01:31:10.304Z,100751.84
2023-04-25T01:33:37.441Z,100748.66
2023-04-25T01:36:05.069Z,100757.75
2023-04-25T01:38:32.710Z,100760.75
2023-04-25T01:40:59.951Z,100761.19
2023-04-25T01:43:27.889Z,100760.69
2023-04-25T01:45:54.982Z,100766.25
2023-04-25T01:48:21.948Z,100761.13
2023-04-25T01:50:49.572Z,100758.91
2023-04-25T01:53:16.717Z,100763.50
2023-04-25T01:55:43.856Z,100776.34
2023-04-25T01:58:14.033Z,100776.53
2023-04-25T02:00:42.266Z,100768.03
2023-04-25T02:03:10.022Z,100763.63
2023-04-25T02:05:41.674Z,100759.69
2023-04-25T02:08:10.514Z,100758.22
2023-04-25T02:10:37.964Z,100752.13
2023-04-25T02:13:06.542Z,100755.88
2023-04-25T02:15:33.628Z,100760.59
2023-04-25T02:18:03.800Z,100764.19
2023-04-25T02:20:31.807Z,100761.75
2023-04-25T02:22:59.151Z,100761.97
2023-04-25T02:25:26.196Z,100755.88
2023-04-25T02:27:53.087Z,100762.31
2023-04-25T02:30:20.249Z,100770.41
2023-04-25T02:32:47.901Z,100759.09
2023-04-25T02:35:14.967Z,100759.53
2023-04-25T02:37:42.115Z,100766.16
2023-04-25T02:40:09.878Z,100770.09
2023-04-25T02:42:37.461Z,100768.19
2023-04-25T02:45:05.021Z,100765.41
2023-04-25T02:47:32.822Z,100767.72
2023-04-25T02:49:59.800Z,100768.72
2023-04-25T02:52:27.124Z,100765.50
2023-04-25T02:54:54.036Z,100769.00
2023-04-25T02:57:21.068Z,100772.75
2023-04-25T02:59:47.975Z,100781.78
2023-04-25T03:02:15.028Z,100787.13
2023-04-25T03:04:42.046Z,100787.47
2023-04-25T03:07:09.249Z,100786.81
2023-04-25T03:09:36.359Z,100800.25
2023-04-25T03:12:03.605Z,100797.66
2023-04-25T03:14:30.500Z,100804.06
2023-04-25T03:16:57.397Z,100806.97
2023-04-25T03:19:24.755Z,100812.41
2023-04-25T03:21:51.772Z,100806.50
2023-04-25T03:24:18.738Z,100811.19
2023-04-25T03:26:45.661Z,100807.47
2023-04-25T03:29:12.980Z,100804.16
2023-04-25T03:31:39.989Z,100803.63
2023-04-25T03:34:06.901Z,100811.63
2023-04-25T03:36:33.959Z,100805.72
2023-04-25T03:39:01.004Z,100812.97
2023-04-25T03:41:27.871Z,100809.56
2023-04-25T03:43:54.730Z,100818.31
2023-04-25T03:46:21.700Z,100820.41
2023-04-25T03:48:48.713Z,100825.31
2023-04-25T03:51:15.621Z,100820.81
2023-04-25T03:53:42.496Z,100819.97
2023-04-25T03:56:09.504Z,100820.06
2023-04-25T03:58:36.753Z,100821.97
2023-04-25T04:01:08.970Z,100829.22
2023-04-25T04:03:37.772Z,100824.84
2023-04-25T04:06:06.963Z,100823.22
2023-04-25T04:08:34.699Z,100810.31
2023-04-25T04:11:01.750Z,100814.00
2023-04-25T04:13:29.975Z,100807.94
2023-04-25T04:15:57.355Z,100815.94
2023-04-25T04:18:24.342Z,100819.56
2023-04-25T04:20:51.596Z,100809.84
2023-04-25T04:23:18.517Z,100813.47
2023-04-25T04:25:45.565Z,100820.59
2023-04-25T04:28:12.968Z,100816.34
2023-04-25T04:30:40.529Z,100810.25
2023-04-25T04:33:08.604Z,100816.53
2023-04-25T04:35:35.734Z,100808.09
2023-04-25T04:38:02.673Z,100808.94
2023-04-25T04:40:29.604Z,100815.97
2023-04-25T04:42:57.673Z,100819.59
2023-04-25T04:45:25.152Z,100820.53
2023-04-25T04:47:52.315Z,100825.00
2023-04-25T04:50:19.481Z,100825.09
2023-04-25T04:52:46.408Z,100829.47
2023-04-25T04:55:13.317Z,100826.16
2023-04-25T04:57:40.778Z,100830.81
2023-04-25T05:00:12.348Z,100830.81
2023-04-25T05:02:40.324Z,100838.72
2023-04-25T05:05:09.089Z,100843.19
2023-04-25T05:07:36.321Z,100841.28
2023-04-25T05:10:03.859Z,100842.91
2023-04-25T05:12:32.025Z,100851.72
2023-04-25T05:14:58.942Z,100851.53
2023-04-25T05:17:25.935Z,100858.59
2023-04-25T05:19:52.894Z,100863.72
2023-04-25T05:22:19.890Z,100867.13
2023-04-25T05:24:47.376Z,100865.97
2023-04-25T05:27:14.318Z,100869.31
2023-04-25T05:29:41.276Z,100867.41
2023-04-25T05:32:08.921Z,100869.78
2023-04-25T05:34:36.246Z,100869.38
2023-04-25T05:37:03.117Z,100867.47
2023-04-25T05:39:30.439Z,100877.41
2023-04-25T05:41:57.369Z,100869.47
2023-04-25T05:44:24.451Z,100863.28
2023-04-25T05:46:51.475Z,100870.25
2023-04-25T05:49:19.585Z,100871.19
2023-04-25T05:51:46.750Z,100878.25
2023-04-25T05:54:13.652Z,100877.13
2023-04-25T05:56:40.705Z,100876.81
2023-04-25T05:59:07.643Z,100892.41
2023-04-25T06:01:34.765Z,100895.25
2023-04-25T06:04:02.993Z,100894.44
2023-04-25T06:06:30.131Z,100892.50
2023-04-25T06:08:57.122Z,100881.66
2023-04-25T06:11:24.042Z,100892.81
2023-04-25T06:13:51.507Z,100900.63
2023-04-25T06:16:18.689Z,100900.38
2023-04-25T06:18:45.610Z,100907.31
2023-04-25T06:21:13.101Z,100913.66
2023-04-25T06:23:40.052Z,100909.28
2023-04-25T06:26:10.508Z,100910.75
2023-04-25T06:28:37.529Z,100909.38
2023-04-25T06:31:05.194Z,100912.59
2023-04-25T06:33:32.263Z,100898.19
2023-04-25T06:35:59.131Z,100903.00
2023-04-25T06:38:26.051Z,100897.25
2023-04-25T06:40:53.090Z,100892.56
2023-04-25T06:43:20.039Z,100896.47
2023-04-25T06:45:48.497Z,100903.44
2023-04-25T06:48:15.630Z,100908.00
2023-04-25T06:50:42.911Z,100911.69
2023-04-25T06:53:10.257Z,100918.22
2023-04-25T06:55:37.409Z,100913.00
2023-04-25T06:58:04.654Z,100913.97
2023-04-25T07:00:31.847Z,100924.03
2023-04-25T07:02:59.387Z,100925.63
2023-04-25T07:05:26.709Z,100925.63
2023-04-25T07:07:53.727Z,100935.28
2023-04-25T07:10:22.683Z,100942.50
2023-04-25T07:12:49.735Z,100941.53
2023-04-25T07:15:17.040Z,100943.22
2023-04-25T07:17:44.035Z,100942.50
2023-04-25T07:20:11.847Z,100942.75
2023-04-25T07:22:38.805Z,100949.00
2023-04-25T07:25:06.952Z,100947.03
2023-04-25T07:27:34.190Z,100948.31
2023-04-25T07:30:01.184Z,100949.81
2023-04-25T07:32:28.423Z,100951.66
2023-04-25T07:34:55.577Z,100956.78
2023-04-25T07:37:23.649Z,100958.97
2023-04-25T07:39:50.535Z,100955.25
2023-04-25T07:42:17.728Z,100954.88
2023-04-25T07:44:44.715Z,100963.94
2023-04-25T07:47:11.851Z,100957.25
2023-04-25T07:49:39.333Z,100953.16
2023-04-25T07:52:07.377Z,100944.78
2023-04-25T07:54:34.461Z,100950.00
2023-04-25T07:57:01.702Z,100953.41
2023-04-25T07:59:30.180Z,100954.91
2023-04-25T08:01:58.746Z,100950.38
2023-04-25T08:04:27.248Z,100952.03
2023-04-25T08:06:55.010Z,100937.84
2023-04-25T08:09:22.408Z,100946.97
2023-04-25T08:11:49.913Z,100956.00
2023-04-25T08:14:16.820Z,100951.69
2023-04-25T08:16:44.099Z,100953.97
2023-04-25T08:19:12.206Z,100957.47
2023-04-25T08:21:39.480Z,100953.34
2023-04-25T08:24:06.950Z,100954.03
2023-04-25T08:26:35.068Z,100954.16
2023-04-25T08:29:02.146Z,100956.75
2023-04-25T08:31:29.550Z,100953.69
2023-04-25T08:33:56.588Z,100960.81
2023-04-25T08:36:35.539Z,100959.50
2023-04-25T08:39:05.240Z,100955.09
2023-04-25T08:41:33.165Z,100957.13
2023-04-25T08:44:02.519Z,100960.50
2023-04-25T08:46:32.346Z,100956.59
2023-04-25T08:49:03.616Z,100961.91
2023-04-25T08:51:33.889Z,100959.19
2023-04-25T08:56:46.746Z,100955.47
2023-04-25T08:59:14.260Z,100963.25
2023-04-25T09:01:42.120Z,100954.44
2023-04-25T09:04:09.362Z,100952.72
2023-04-25T09:06:37.127Z,100956.81
2023-04-25T09:09:06.683Z,100961.88
2023-04-25T09:11:35.144Z,100961.56
2023-04-25T09:14:15.975Z,100957.84
2023-04-25T09:17:02.332Z,100959.84
2023-04-25T09:19:40.810Z,100952.41
2023-04-25T09:22:09.605Z,100951.69
2023-04-25T09:24:47.142Z,100955.59
2023-04-25T09:27:21.168Z,100946.28
2023-04-25T09:29:48.206Z,100948.16
2023-04-25T09:32:24.877Z,100952.72
2023-04-25T09:34:54.727Z,100952.91
2023-04-25T09:37:26.693Z,100956.81
2023-04-25T09:40:06.533Z,100956.13
2023-04-25T09:42:35.893Z,100952.69
2023-04-25T09:45:05.173Z,100945.91
2023-04-25T09:47:32.297Z,100945.41
2023-04-25T09:49:59.725Z,100943.41
2023-04-25T09:52:26.828Z,100945.28
2023-04-25T09:54:54.096Z,100952.91
2023-04-25T09:57:24.853Z,100951.69
2023-04-25T09:59:54.943Z,100942.22
2023-04-25T10:02:28.468Z,100954.44
2023-04-25T10:04:57.339Z,100948.16
2023-04-25T10:07:27.310Z,100951.72
2023-04-25T10:10:03.065Z,100947.63
2023-04-25T10:12:32.537Z,100945.91
2023-04-25T10:15:00.700Z,100956.91
2023-04-25T10:17:31.356Z,100948.31
2023-04-25T10:19:59.877Z,100944.09
2023-04-25T10:22:38.656Z,100947.63
2023-04-25T10:25:07.342Z,100950.19
2023-04-25T10:27:36.178Z,100945.94
2023-04-25T10:30:16.788Z,100944.25
2023-04-25T10:32:45.164Z,100936.63
2023-04-25T10:35:28.675Z,100940.84
2023-04-25T10:38:00.338Z,100942.16
2023-04-25T10:40:28.513Z,100944.72
2023-04-25T10:42:57.201Z,100946.59
2023-04-25T10:45:24.619Z,100946.91
2023-04-25T10:47:51.604Z,100934.72
2023-04-25T10:50:19.243Z,100935.84
2023-04-25T10:52:46.118Z,100931.63
2023-04-25T10:55:14.178Z,100938.25
2023-04-25T10:57:42.646Z,100934.84
2023-04-25T11:00:19.832Z,100937.88
2023-04-25T11:02:51.324Z,100938.72
2023-04-25T11:05:36.504Z,100937.22
2023-04-25T11:08:13.050Z,100938.41
2023-04-25T11:10:41.472Z,100944.03
2023-04-25T11:13:08.673Z,100943.53
2023-04-25T11:15:35.641Z,100933.56
2023-04-25T11:18:03.566Z,100937.78
2023-04-25T11:20:30.724Z,100939.50
2023-04-25T11:25:31.605Z,100949.34
2023-04-25T11:28:02.460Z,100939.00
2023-04-25T11:30:31.852Z,100936.78
2023-04-25T11:32:59.264Z,100935.44
2023-04-25T11:35:26.954Z,100921.19
2023-04-25T11:37:54.019Z,100931.91
2023-04-25T11:40:21.248Z,100921.03
2023-04-25T11:42:49.109Z,100932.38
2023-04-25T11:45:16.785Z,100917.75
2023-04-25T11:47:43.912Z,100930.63
2023-04-25T11:50:11.330Z,100925.13
2023-04-25T11:52:44.363Z,100920.72
2023-04-25T11:55:17.628Z,100921.09
2023-04-25T11:57:48.276Z,100923.09
2023-04-25T12:00:21.877Z,100919.75
2023-04-25T12:02:55.032Z,100918.66
2023-04-25T12:05:32.587Z,100911.78
2023-04-25T12:08:13.402Z,100926.09
2023-04-25T12:10:42.037Z,100924.44
2023-04-25T12:13:27.033Z,100933.97
2023-04-25T12:15:57.362Z,100926.25
2023-04-25T12:18:29.166Z,100935.44
2023-04-25T12:20:56.565Z,100940.34
2023-04-25T12:23:30.236Z,100936.78
2023-04-25T12:25:57.651Z,100930.44
2023-04-25T12:28:28.329Z,100933.28
2023-04-25T12:30:57.562Z,100928.69
2023-04-25T12:33:26.094Z,100926.00
2023-04-25T12:35:54.589Z,100929.84
2023-04-25T12:38:32.687Z,100931.41
2023-04-25T12:40:59.894Z,100929.59
2023-04-25T12:43:27.279Z,100937.34
2023-04-25T12:45:56.425Z,100936.28
2023-04-25T12:48:24.545Z,100938.56
2023-04-25T12:50:53.386Z,100930.16
2023-04-25T12:53:22.407Z,100929.59
2023-04-25T12:55:50.048Z,100927.38
2023-04-25T12:58:19.430Z,100928.66
2023-04-25T13:00:47.485Z,100929.53
2023-04-25T13:03:14.672Z,100927.28
2023-04-25T13:05:42.847Z,100928.34
2023-04-25T13:08:10.006Z,100932.66
2023-04-25T13:10:38.179Z,100940.81
2023-04-25T13:13:05.060Z,100935.59
2023-04-25T13:15:32.144Z,100937.50
2023-04-25T13:17:59.453Z,100939.34
2023-04-25T13:20:26.435Z,100939.16
2023-04-25T13:22:53.629Z,100953.16
2023-04-25T13:25:20.838Z,100937.28
2023-04-25T13:27:47.781Z,100938.97
2023-04-25T13:30:15.465Z,100929.13
2023-04-25T13:32:42.417Z,100926.53
2023-04-25T13:35:13.260Z,100921.28
2023-04-25T13:37:40.815Z,100923.69
2023-04-25T13:40:11.301Z,100927.63
2023-04-25T13:42:39.470Z,100929.03
2023-04-25T13:45:08.005Z,100926.97
2023-04-25T13:47:36.168Z,100929.81
2023-04-25T13:50:04.777Z,100927.28
2023-04-25T13:52:31.991Z,100924.03
2023-04-25T13:55:00.219Z,100921.00
2023-04-25T13:57:27.414Z,100918.56
2023-04-25T13:59:55.037Z,100924.06
2023-04-25T14:02:21.987Z,100914.97
2023-04-25T14:04:49.268Z,100917.84
2023-04-25T14:07:17.755Z,100910.03
2023-04-25T14:09:45.467Z,100908.66
2023-04-25T14:12:12.447Z,100910.88
2023-04-25T14:14:39.400Z,100918.03
2023-04-25T14:17:06.307Z,100913.81
2023-04-25T14:19:33.221Z,100907.91
2023-04-25T14:22:00.666Z,100914.88
2023-04-25T14:24:30.993Z,100912.69
2023-04-25T14:26:57.877Z,100895.47
2023-04-25T14:29:24.798Z,100907.56
2023-04-25T14:31:51.685Z,100911.88
2023-04-25T14:34:18.730Z,100910.28
2023-04-25T14:36:45.677Z,100906.34
2023-04-25T14:39:13.729Z,100899.84
2023-04-25T14:41:40.801Z,100899.66
2023-04-25T14:44:07.789Z,100905.38
2023-04-25T14:46:34.789Z,100901.31
2023-04-25T14:49:02.415Z,100897.94
2023-04-25T14:51:29.370Z,100911.75
2023-04-25T14:53:56.952Z,100910.59
2023-04-25T14:56:24.322Z,100902.47
2023-04-25T14:58:51.288Z,100904.00
2023-04-25T15:01:18.254Z,100901.06
2023-04-25T15:03:45.460Z,100905.00
2023-04-25T15:06:12.563Z,100915.84
2023-04-25T15:08:39.461Z,100904.03
2023-04-25T15:11:06.605Z,100907.66
2023-04-25T15:13:33.919Z,100899.91
2023-04-25T15:16:00.990Z,100905.78
2023-04-25T15:18:27.880Z,100900.34
2023-04-25T15:20:55.135Z,100895.91
2023-04-25T15:23:22.878Z,100901.25
2023-04-25T15:25:52.423Z,100895.25
2023-04-25T15:28:20.333Z,100888.53
2023-04-25T15:30:47.285Z,100885.19
2023-04-25T15:33:14.934Z,100893.00
2023-04-25T15:35:41.908Z,100889.38
2023-04-25T15:38:11.540Z,100891.16
2023-04-25T15:40:38.720Z,100888.88
2023-04-25T15:43:05.903Z,100892.03
2023-04-25T15:45:33.333Z,100881.56
2023-04-25T15:48:00.326Z,100890.31
2023-04-25T15:50:27.671Z,100885.84
2023-04-25T15:52:54.742Z,100875.69
2023-04-25T15:55:22.128Z,100879.00
2023-04-25T15:57:51.357Z,100880.97
2023-04-25T16:00:19.649Z,100875.34
2023-04-25T16:02:48.654Z,100885.13
2023-04-25T16:05:16.085Z,100871.47
2023-04-25T16:07:45.287Z,100877.41
2023-04-25T16:10:13.458Z,100862.94
2023-04-25T16:12:41.386Z,100873.63
2023-04-25T16:15:09.108Z,100864.63
2023-04-25T16:17:36.169Z,100864.16
2023-04-25T16:20:10.237Z,100868.75
2023-04-25T16:22:39.778Z,100870.81
2023-04-25T16:25:08.320Z,100862.66
2023-04-25T16:27:35.633Z,100857.31
2023-04-25T16:30:03.862Z,100854.03
2023-04-25T16:32:31.333Z,100862.66
2023-04-25T16:34:58.937Z,100857.13
2023-04-25T16:37:26.310Z,100854.13
2023-04-25T16:39:53.609Z,100849.63
2023-04-25T16:42:20.548Z,100851.28
2023-04-25T16:44:47.580Z,100851.56
2023-04-25T16:47:18.681Z,100848.06
2023-04-25T16:49:46.575Z,100853.03
2023-04-25T16:52:13.611Z,100849.91
2023-04-25T16:54:40.721Z,100845.50
2023-04-25T16:57:11.331Z,100844.47
2023-04-25T16:59:39.724Z,100843.72
2023-04-25T17:02:13.144Z,100846.53
2023-04-25T17:04:41.004Z,100838.66
2023-04-25T17:07:09.037Z,100838.75
2023-04-25T17:09:36.534Z,100835.53
2023-04-25T17:12:04.751Z,100835.50
2023-04-25T17:14:33.404Z,100830.06
2023-04-25T17:17:00.517Z,100834.75
2023-04-25T17:19:28.653Z,100838.53
2023-04-25T17:21:56.211Z,100834.75
2023-04-25T17:24:23.192Z,100831.38
2023-04-25T17:26:50.246Z,100836.53
2023-04-25T17:29:17.134Z,100835.50
2023-04-25T17:31:45.226Z,100831.75
2023-04-25T17:34:16.700Z,100835.53
2023-04-25T17:36:45.277Z,100825.69
2023-04-25T17:39:12.363Z,100833.84
2023-04-25T17:41:39.287Z,100831.31
2023-04-25T17:44:06.197Z,100822.56
2023-04-25T17:46:33.362Z,100826.03
2023-04-25T17:49:01.168Z,100828.44
2023-04-25T17:51:28.694Z,100835.34
2023-04-25T17:53:56.177Z,100819.97
2023-04-25T17:56:27.000Z,100815.94
2023-04-25T17:58:54.780Z,100818.00
2023-04-25T18:01:22.748Z,100815.75
2023-04-25T18:03:50.615Z,100820.72
2023-04-25T18:06:18.865Z,100810.84
2023-04-25T18:08:46.817Z,100821.81
2023-04-25T18:11:13.744Z,100820.66
2023-04-25T18:13:41.476Z,100819.16
2023-04-25T18:16:08.772Z,100823.97
2023-04-25T18:18:37.080Z,100820.44
2023-04-25T18:21:05.903Z,100826.38
2023-04-25T18:23:34.379Z,100824.72
2023-04-25T18:26:03.024Z,100818.44
2023-04-25T18:28:30.439Z,100824.47
2023-04-25T18:30:57.441Z,100826.38
2023-04-25T18:33:24.532Z,100821.06
2023-04-25T18:38:34.937Z,100819.75
2023-04-25T18:41:24.049Z,100824.69
2023-04-25T18:43:55.845Z,100823.03
2023-04-25T18:46:23.333Z,100828.84
2023-04-25T18:48:54.633Z,100829.56
2023-04-25T18:51:27.970Z,100825.66
2023-04-25T18:53:55.124Z,100824.00
2023-04-25T18:56:23.176Z,100826.53
2023-04-25T18:58:54.108Z,100824.69
2023-04-25T19:01:23.268Z,100840.13
2023-04-25T19:03:57.164Z,100846.25
2023-04-25T19:06:28.208Z,100838.81
2023-04-25T19:08:56.652Z,100841.03
2023-04-25T19:11:24.612Z,100852.03
2023-04-25T19:13:52.187Z,100854.41
2023-04-25T19:16:19.447Z,100864.25
2023-04-25T19:18:47.381Z,100862.03
2023-04-25T19:21:14.932Z,100848.16
2023-04-25T19:23:41.972Z,100860.31
2023-04-25T19:26:09.046Z,100854.38
2023-04-25T19:28:36.040Z,100853.19
2023-04-25T19:31:03.429Z,100858.09
2023-04-25T19:33:30.469Z,100856.06
2023-04-25T19:35:57.694Z,100859.28
2023-04-25T19:38:24.707Z,100862.47
2023-04-25T19:40:51.585Z,100866.81
2023-04-25T19:43:18.949Z,100872.59
2023-04-25T19:45:46.682Z,100864.94
2023-04-25T19:48:15.089Z,100876.97
2023-04-25T19:50:42.377Z,100875.94
2023-04-25T19:53:09.904Z,100879.13
2023-04-25T19:55:36.958Z,100874.19
2023-04-25T19:58:07.276Z,100879.44
2023-04-25T20:00:34.957Z,100879.06
2023-04-25T20:03:02.139Z,100877.53
2023-04-25T20:05:29.050Z,100873.47
2023-04-25T20:07:55.984Z,100880.03
2023-04-25T20:10:23.467Z,100875.13
2023-04-25T20:12:50.817Z,100880.16
2023-04-25T20:15:19.025Z,100883.88
2023-04-25T20:17:45.955Z,100891.63
2023-04-25T20:20:13.118Z,100887.22
2023-04-25T20:22:40.833Z,100883.97
2023-04-25T20:25:10.098Z,100888.88
2023-04-25T20:27:40.223Z,100882.63
2023-04-25T20:30:08.877Z,100890.19
2023-04-25T20:32:37.252Z,100877.31
2023-04-25T20:35:07.367Z,100883.38
2023-04-25T20:37:35.189Z,100878.97
2023-04-25T20:40:06.280Z,100884.03
2023-04-25T20:42:33.260Z,100885.31
2023-04-25T20:45:01.016Z,100884.78
2023-04-25T20:47:28.669Z,100882.56
2023-04-25T20:49:55.722Z,100884.88
2023-04-25T20:52:23.400Z,100886.06
2023-04-25T20:54:50.890Z,100889.94
2023-04-25T20:57:17.966Z,100887.59
2023-04-25T20:59:45.280Z,100884.19
2023-04-25T21:02:15.824Z,100881.34
2023-04-25T21:04:46.808Z,100882.81
2023-04-25T21:07:14.121Z,100878.59
2023-04-25T21:09:43.023Z,100879.72
2023-04-25T21:12:10.111Z,100871.94
2023-04-25T21:14:37.151Z,100875.66
2023-04-25T21:17:04.756Z,100877.66
2023-04-25T21:19:31.974Z,100884.09
2023-04-25T21:21:59.572Z,100884.59
2023-04-25T21:24:27.507Z,100881.59
2023-04-25T21:26:54.627Z,100880.75
2023-04-25T21:29:21.881Z,100878.34
2023-04-25T21:31:48.955Z,100881.38
2023-04-25T21:34:16.406Z,100879.28
2023-04-25T21:36:44.459Z,100885.88
2023-04-25T21:39:11.598Z,100887.88
2023-04-25T21:41:38.828Z,100889.00
2023-04-25T21:44:06.728Z,100895.75
2023-04-25T21:46:34.655Z,100889.50
2023-04-25T21:49:01.842Z,100885.47
2023-04-25T21:51:29.271Z,100885.47
2023-04-25T21:53:56.159Z,100886.94
2023-04-25T21:56:23.357Z,100892.81
2023-04-25T21:58:50.954Z,100892.81
2023-04-25T22:01:18.051Z,100884.03
2023-04-25T22:03:45.378Z,100884.47
2023-04-25T22:06:12.386Z,100885.50
2023-04-25T22:08:39.233Z,100879.69
2023-04-25T22:11:07.679Z,100879.00
2023-04-25T22:13:34.552Z,100878.72
2023-04-25T22:16:01.438Z,100887.56
2023-04-25T22:18:28.367Z,100889.75
2023-04-25T22:20:55.530Z,100879.63
2023-04-25T22:23:22.881Z,100874.13
2023-04-25T22:25:49.787Z,100875.56
2023-04-25T22:28:17.028Z,100879.41
2023-04-25T22:30:44.170Z,100876.88
2023-04-25T22:33:11.676Z,100875.00
2023-04-25T22:35:40.121Z,100874.63
2023-04-25T22:38:07.014Z,100871.06
2023-04-25T22:40:34.240Z,100874.09
2023-04-25T22:43:01.148Z,100878.66
2023-04-25T22:45:28.085Z,100875.84
2023-04-25T22:47:55.197Z,100873.13
2023-04-25T22:50:22.139Z,100872.44
2023-04-25T22:52:49.235Z,100876.44
2023-04-25T22:55:16.361Z,100876.72
2023-04-25T22:57:43.316Z,100866.53
2023-04-25T23:00:19.937Z,100872.94
2023-04-25T23:02:47.379Z,100880.19
2023-04-25T23:05:15.598Z,100874.94
2023-04-25T23:07:45.250Z,100879.63
2023-04-25T23:10:13.404Z,100879.78
2023-04-25T23:12:40.515Z,100885.78
2023-04-25T23:15:08.738Z,100881.25
2023-04-25T23:17:37.416Z,100876.84
2023-04-25T23:20:07.911Z,100880.53
2023-04-25T23:22:34.986Z,100884.25
2023-04-25T23:25:02.402Z,100891.66
2023-04-25T23:27:29.409Z,100888.09
2023-04-25T23:29:56.937Z,100879.84
2023-04-25T23:32:26.551Z,100879.13
2023-04-25T23:34:53.516Z,100884.25
2023-04-25T23:37:20.430Z,100881.13
2023-04-25T23:39:51.175Z,100879.75
2023-04-25T23:42:19.231Z,100866.66
2023-04-25T23:44:46.102Z,100874.19
2023-04-25T23:47:14.595Z,100867.56
2023-04-25T23:49:41.628Z,100867.84
2023-04-25T23:52:08.672Z,100873.84
2023-04-25T23:54:36.196Z,100867.03
2023-04-25T23:57:04.639Z,100873.88
2023-04-25T23:59:31.907Z,100871.47
